Time;durP1;ratioP1;P1;durP2;ratioP2;P2;SDS_P1;SDS_P2;PMS_P1;PMS_P2;Temp;Humidity;BMP_temperature;BMP_pressure;BME280_temperature;BME280_humidity;BME280_pressure;Samples;Min_cycle;Max_cycle;Signal;HPM_P1;HPM_P2
2023/05/11 00:02:23;;;;;;;0.47;0.43;;;;;;;13.50;87.96;100286.34;5020637;28;20045;-82
2023/05/11 00:05:18;;;;;;;1.20;0.50;;;;;;;13.51;88.03;100287.94;5023830;28;20056;-82
2023/05/11 00:08:12;;;;;;;0.75;0.60;;;;;;;13.40;88.33;100295.00;5019247;28;20045;-81
2023/05/11 00:11:10;;;;;;;0.60;0.60;;;;;;;13.38;88.12;100287.16;5024443;28;20053;-81
2023/05/11 00:14:02;;;;;;;3.88;0.50;;;;;;;13.44;86.96;100283.06;5026082;28;20049;-82
2023/05/11 00:16:54;;;;;;;1.27;0.63;;;;;;;13.33;87.00;100275.66;5012406;28;20053;-82
2023/05/11 00:19:49;;;;;;;1.77;1.40;;;;;;;13.59;86.94;100278.81;5019188;28;20045;-81
2023/05/11 00:22:43;;;;;;;0.60;0.50;;;;;;;13.74;86.42;100274.53;5025724;28;20045;-81
2023/05/11 00:25:38;;;;;;;0.65;0.40;;;;;;;13.95;85.40;100270.47;5027942;28;20049;-81
2023/05/11 00:28:32;;;;;;;0.60;0.40;;;;;;;14.14;84.08;100267.06;5022087;28;20050;-82
2023/05/11 00:31:27;;;;;;;1.05;0.47;;;;;;;14.30;83.34;100254.22;4996087;28;20053;-81
2023/05/11 00:34:22;;;;;;;1.55;0.40;;;;;;;14.44;81.46;100262.81;5021167;28;20049;-80
2023/05/11 00:37:16;;;;;;;0.30;0.30;;;;;;;14.54;80.26;100258.78;5035175;28;20531;-81
2023/05/11 00:40:11;;;;;;;0.35;0.35;;;;;;;14.48;80.39;100269.19;5017544;28;20110;-81
2023/05/11 00:43:03;;;;;;;0.65;0.40;;;;;;;14.21;80.07;100256.34;5008349;28;20049;-81
2023/05/11 00:45:56;;;;;;;1.25;0.50;;;;;;;13.99;83.10;100259.63;5008892;28;20049;-80
2023/05/11 00:48:50;;;;;;;3.92;0.68;;;;;;;13.75;83.97;100252.34;5028330;28;20049;-81
2023/05/11 00:51:45;;;;;;;1.55;0.25;;;;;;;13.51;84.45;100261.38;5030523;28;20049;-81
2023/05/11 00:54:40;;;;;;;1.02;0.28;;;;;;;13.11;86.18;100258.63;5027485;28;20049;-81
2023/05/11 00:57:35;;;;;;;0.70;0.40;;;;;;;13.21;87.85;100260.88;5029455;28;20045;-81
2023/05/11 01:00:29;;;;;;;0.60;0.55;;;;;;;13.25;86.40;100255.56;5028598;28;20408;-81
2023/05/11 01:03:25;;;;;;;2.15;0.40;;;;;;;13.20;86.41;100256.59;5032151;28;20045;-81
2023/05/11 01:06:38;;;;;;;0.50;0.50;;;;;;;13.00;87.28;100257.50;5030306;28;20057;-81
2023/05/11 01:09:56;;;;;;;216.80;123.43;;;;;;;13.25;87.45;100255.56;5017660;28;20527;-81
2023/05/11 01:13:03;;;;;;;21.73;20.10;;;;;;;13.39;86.99;100258.72;5025992;28;20042;-82
2023/05/11 01:15:58;;;;;;;1.10;1.00;;;;;;;13.15;85.38;100264.22;5019987;28;20409;-82
2023/05/11 01:19:04;;;;;;;0.63;0.47;;;;;;;13.12;87.66;100264.88;5016005;28;20052;-82
2023/05/11 01:22:00;;;;;;;1.90;0.52;;;;;;;13.27;86.44;100261.44;5024198;28;20041;-82
2023/05/11 01:25:23;;;;;;;0.35;0.35;;;;;;;13.48;85.48;100266.75;5030674;28;20052;-80
2023/05/11 01:28:38;;;;;;;0.28;0.28;;;;;;;13.82;83.61;100259.91;5018884;28;20041;-82
2023/05/11 01:31:34;;;;;;;0.63;0.45;;;;;;;14.06;82.53;100262.56;5029101;28;20049;-82
2023/05/11 01:34:33;;;;;;;1.23;0.30;;;;;;;14.15;81.94;100263.19;5028677;28;20045;-81
2023/05/11 01:37:32;;;;;;;1.65;0.28;;;;;;;14.20;81.48;100271.16;5028547;28;20055;-82
2023/05/11 01:40:28;;;;;;;2.95;0.98;;;;;;;13.36;85.20;100261.34;5018328;28;20052;-82
2023/05/11 01:43:24;;;;;;;0.40;0.40;;;;;;;13.27;87.68;100261.44;5024874;28;20044;-80
2023/05/11 01:46:18;;;;;;;2.92;0.50;;;;;;;13.25;85.81;100261.03;5015891;28;20053;-82
2023/05/11 01:49:11;;;;;;;0.52;0.30;;;;;;;13.09;85.23;100265.56;5028453;28;20044;-82
2023/05/11 01:52:07;;;;;;;1.35;0.70;;;;;;;12.82;85.87;100254.19;5031783;28;20077;-81
2023/05/11 01:55:05;;;;;;;3.75;2.60;;;;;;;12.74;86.68;100252.38;4999476;28;20044;-81
2023/05/11 01:58:01;;;;;;;31.25;23.70;;;;;;;12.76;85.86;100261.00;5010383;28;20499;-82
2023/05/11 02:00:53;;;;;;;3.30;3.00;;;;;;;12.79;89.75;100257.63;4994795;28;20030;-82
2023/05/11 02:03:51;;;;;;;2.38;0.70;;;;;;;12.57;90.54;100254.50;5014066;28;20064;-81
2023/05/11 02:06:48;;;;;;;1.10;1.05;;;;;;;12.68;90.64;100255.66;5010742;28;20057;-80
2023/05/11 02:09:43;;;;;;;0.88;0.60;;;;;;;12.69;91.67;100257.25;4995349;28;20052;-81
2023/05/11 02:12:39;;;;;;;0.50;0.43;;;;;;;12.60;91.94;100249.16;5033064;28;20554;-81
2023/05/11 02:15:29;;;;;;;2.03;0.80;;;;;;;12.67;91.46;100249.41;5022042;28;20021;-81
2023/05/11 02:18:22;;;;;;;1.33;1.10;;;;;;;12.65;91.64;100261.78;5032804;28;20060;-81
2023/05/11 02:21:21;;;;;;;1.88;1.13;;;;;;;12.64;91.66;100255.56;5030388;28;20036;-81
2023/05/11 02:24:16;;;;;;;3.95;1.35;;;;;;;12.64;91.41;100258.28;5026308;28;20053;-81
2023/05/11 02:27:11;;;;;;;1.00;0.90;;;;;;;12.68;91.31;100256.47;5012994;28;20041;-81
2023/05/11 02:30:05;;;;;;;1.47;0.93;;;;;;;12.65;91.48;100254.41;4995884;28;20057;-82
2023/05/11 02:33:06;;;;;;;0.50;0.50;;;;;;;12.62;91.29;100252.38;4998358;28;20314;-82
2023/05/11 02:36:03;;;;;;;2.70;0.95;;;;;;;12.90;91.06;100251.69;5006218;28;20045;-82
2023/05/11 02:38:59;;;;;;;1.40;0.60;;;;;;;13.30;89.56;100255.31;5006885;28;20042;-81
2023/05/11 02:42:00;;;;;;;1.75;0.88;;;;;;;13.53;87.45;100259.13;5007587;28;20050;-80
2023/05/11 02:45:12;;;;;;;1.10;0.88;;;;;;;13.79;86.04;100249.69;5029535;28;20036;-81
2023/05/11 02:48:10;;;;;;;1.00;0.90;;;;;;;13.90;84.69;100242.59;5026047;28;20056;-80
2023/05/11 02:51:04;;;;;;;1.33;0.75;;;;;;;13.97;83.77;100243.56;5013653;28;20045;-81
2023/05/11 02:54:01;;;;;;;2.65;0.70;;;;;;;14.01;82.93;100241.75;5029689;28;20049;-82
2023/05/11 02:56:58;;;;;;;0.40;0.40;;;;;;;14.05;82.22;100237.16;5019900;28;20053;-81
2023/05/11 02:59:53;;;;;;;0.30;0.30;;;;;;;13.66;83.25;100230.59;4993035;28;20057;-82
2023/05/11 03:02:48;;;;;;;0.52;0.40;;;;;;;13.54;85.50;100233.41;4997000;28;20045;-81
2023/05/11 03:05:44;;;;;;;0.47;0.47;;;;;;;13.33;84.46;100221.84;5013437;28;20048;-82
2023/05/11 03:08:39;;;;;;;0.98;0.50;;;;;;;13.20;85.44;100223.03;5024618;28;20405;-81
2023/05/11 03:11:34;;;;;;;0.82;0.70;;;;;;;12.66;88.94;100225.19;5021813;28;20053;-81
2023/05/11 03:14:28;;;;;;;1.40;0.88;;;;;;;12.41;91.50;100224.38;5027256;28;20049;-81
2023/05/11 03:17:23;;;;;;;1.98;0.63;;;;;;;12.36;93.04;100224.59;5015425;28;20416;-81
2023/05/11 03:20:18;;;;;;;1.08;0.70;;;;;;;12.54;92.63;100225.22;5026611;28;20045;-81
2023/05/11 03:23:14;;;;;;;0.52;0.28;;;;;;;12.65;90.64;100221.66;5025676;28;20049;-81
2023/05/11 03:26:11;;;;;;;3.42;0.80;;;;;;;13.05;90.54;100221.78;5032788;28;20049;-81
2023/05/11 03:29:05;;;;;;;1.65;0.70;;;;;;;13.30;88.45;100217.09;5008073;28;20058;-80
2023/05/11 03:31:58;;;;;;;3.33;0.60;;;;;;;13.50;86.93;100218.06;5006753;28;20042;-81
2023/05/11 03:34:54;;;;;;;1.10;0.70;;;;;;;13.49;86.02;100214.53;5012422;28;20044;-81
2023/05/11 03:37:51;;;;;;;0.63;0.43;;;;;;;13.67;85.36;100209.53;5012450;28;20057;-80
2023/05/11 03:40:46;;;;;;;0.70;0.70;;;;;;;13.84;84.26;100208.44;5026690;28;20045;-81
2023/05/11 03:43:43;;;;;;;0.77;0.47;;;;;;;13.24;86.46;100213.81;5025222;28;20551;-82
2023/05/11 03:46:39;;;;;;;1.08;0.60;;;;;;;13.35;88.16;100207.84;5021291;28;20049;-82
2023/05/11 03:49:34;;;;;;;0.93;0.57;;;;;;;13.09;88.07;100216.41;5009496;28;20049;-82
2023/05/11 03:52:28;;;;;;;1.38;0.77;;;;;;;13.16;89.57;100213.91;5029225;28;20057;-83
2023/05/11 03:55:21;;;;;;;4.65;0.95;;;;;;;13.35;88.61;100213.31;5019507;28;20053;-82
2023/05/11 03:58:13;;;;;;;0.73;0.73;;;;;;;13.38;86.87;100212.63;5030419;28;20053;-82
2023/05/11 04:01:03;;;;;;;2.47;1.00;;;;;;;13.23;87.22;100212.19;5011628;28;20045;-81
2023/05/11 04:03:58;;;;;;;1.75;0.90;;;;;;;13.53;86.72;100217.34;5010972;28;20049;-82
2023/05/11 04:06:52;;;;;;;2.75;0.80;;;;;;;12.96;86.93;100201.97;5027554;28;20040;-81
2023/05/11 04:09:46;;;;;;;0.63;0.50;;;;;;;12.94;87.71;100204.28;5041624;28;20052;-82
2023/05/11 04:12:41;;;;;;;0.40;0.35;;;;;;;12.78;89.18;100206.09;5028781;28;20057;-81
2023/05/11 04:15:36;;;;;;;0.85;0.82;;;;;;;12.80;89.81;100207.34;5032402;28;20057;-82
2023/05/11 04:18:26;;;;;;;0.60;0.45;;;;;;;13.17;88.39;100199.13;5029798;28;20045;-82
2023/05/11 04:21:20;;;;;;;0.75;0.47;;;;;;;13.29;86.16;100196.38;5019868;28;20044;-82
2023/05/11 04:24:15;;;;;;;2.80;0.40;;;;;;;13.47;82.70;100205.88;5030710;28;20053;-82
2023/05/11 04:27:10;;;;;;;2.38;0.30;;;;;;;13.44;80.07;100195.66;5018732;28;20040;-82
2023/05/11 04:30:05;;;;;;;3.33;0.40;;;;;;;13.37;80.10;100200.91;5027002;28;20425;-82
2023/05/11 04:32:59;;;;;;;1.10;0.30;;;;;;;13.58;80.07;100198.78;5010348;28;20389;-82
2023/05/11 04:35:57;;;;;;;0.63;0.20;;;;;;;13.31;78.99;100199.53;4999949;28;20049;-82
2023/05/11 04:38:52;;;;;;;0.85;0.63;;;;;;;13.38;77.61;100204.41;5006622;28;20418;-81
2023/05/11 04:41:46;;;;;;;0.70;0.27;;;;;;;13.28;80.50;100205.72;5014981;28;20041;-82
2023/05/11 04:44:41;;;;;;;0.65;0.20;;;;;;;13.29;81.10;100204.56;5010363;28;20295;-82
2023/05/11 04:47:37;;;;;;;1.75;0.43;;;;;;;13.55;80.42;100207.69;5024983;28;20053;-82
2023/05/11 04:50:32;;;;;;;0.13;0.13;;;;;;;13.72;79.75;100209.28;5029988;28;20048;-80
2023/05/11 04:53:24;;;;;;;2.53;0.40;;;;;;;13.83;78.89;100209.59;5004740;28;20045;-81
2023/05/11 04:56:18;;;;;;;2.35;0.25;;;;;;;13.81;78.29;100215.44;5016271;28;20061;-80
2023/05/11 04:59:13;;;;;;;0.73;0.30;;;;;;;13.72;79.65;100212.03;5020145;28;20053;-80
2023/05/11 05:02:06;;;;;;;0.38;0.20;;;;;;;13.49;80.71;100222.72;5025499;28;20045;-80
2023/05/11 05:05:00;;;;;;;0.30;0.20;;;;;;;13.33;81.59;100221.84;5023505;28;20054;-82
2023/05/11 05:07:55;;;;;;;0.20;0.20;;;;;;;13.13;81.88;100220.88;5019835;28;20416;-81
2023/05/11 05:10:48;;;;;;;0.15;0.10;;;;;;;13.06;81.33;100217.88;5018729;28;20053;-82
2023/05/11 05:13:40;;;;;;;1.38;0.30;;;;;;;13.29;82.25;100220.97;5038439;28;20052;-81
2023/05/11 05:16:35;;;;;;;1.10;0.40;;;;;;;13.37;82.79;100222.75;5022834;28;20413;-80
2023/05/11 05:19:27;;;;;;;3.63;0.77;;;;;;;13.44;81.15;100217.50;5018381;28;20125;-82
2023/05/11 05:22:21;;;;;;;0.95;0.50;;;;;;;13.41;80.65;100223.63;5022573;28;20037;-82
2023/05/11 05:25:12;;;;;;;0.80;0.43;;;;;;;13.21;81.41;100221.88;5020782;28;20044;-82
2023/05/11 05:28:06;;;;;;;3.50;0.82;;;;;;;13.42;81.43;100225.22;5014020;28;20040;-83
2023/05/11 05:31:01;;;;;;;8.03;2.00;;;;;;;13.59;80.32;100230.41;5022514;28;20044;-80
2023/05/11 05:33:51;;;;;;;15.68;6.93;;;;;;;13.79;79.05;100234.09;5018679;28;20049;-81
2023/05/11 05:36:45;;;;;;;7.28;3.90;;;;;;;13.87;77.60;100224.13;5022148;28;20117;-80
2023/05/11 05:39:40;;;;;;;6.85;1.45;;;;;;;14.04;76.80;100232.03;5014237;28;20053;-81
2023/05/11 05:42:35;;;;;;;1.80;0.75;;;;;;;14.10;75.83;100239.66;5028945;28;20508;-80
2023/05/11 05:45:30;;;;;;;1.20;0.45;;;;;;;14.21;74.89;100230.94;5000147;28;20065;-80
2023/05/11 05:48:23;;;;;;;2.47;0.30;;;;;;;14.31;74.39;100241.34;4998754;28;20049;-80
2023/05/11 05:51:16;;;;;;;1.55;0.28;;;;;;;14.40;73.82;100231.84;5014222;28;20417;-80
2023/05/11 05:54:10;;;;;;;2.35;1.02;;;;;;;14.42;74.28;100246.00;5012741;28;20045;-81
2023/05/11 05:57:05;;;;;;;1.73;0.60;;;;;;;14.30;75.84;100243.28;5016785;28;20401;-80
2023/05/11 05:59:59;;;;;;;0.95;0.40;;;;;;;14.05;77.58;100244.56;5015550;28;20050;-79
2023/05/11 06:02:52;;;;;;;2.88;0.75;;;;;;;14.14;77.23;100242.47;5010663;28;20041;-81
2023/05/11 06:05:49;;;;;;;2.13;0.57;;;;;;;14.32;76.80;100237.47;5021161;28;20513;-81
2023/05/11 06:08:42;;;;;;;4.30;0.52;;;;;;;14.39;75.27;100245.88;5045712;28;20041;-80
2023/05/11 06:11:36;;;;;;;1.50;0.70;;;;;;;14.42;75.20;100240.50;5014662;28;20145;-80
2023/05/11 06:14:31;;;;;;;3.00;0.30;;;;;;;14.25;75.27;100237.28;5009204;28;20049;-80
2023/05/11 06:17:27;;;;;;;0.28;0.25;;;;;;;14.29;75.11;100233.50;5023146;28;20057;-80
2023/05/11 06:20:22;;;;;;;0.10;0.03;;;;;;;14.21;75.10;100237.19;5020451;28;20045;-80
2023/05/11 06:23:16;;;;;;;1.15;0.95;;;;;;;14.09;73.98;100238.06;5018171;28;20045;-79
2023/05/11 06:26:11;;;;;;;1.17;0.38;;;;;;;13.99;75.67;100238.56;5027077;28;20049;-80
2023/05/11 06:29:05;;;;;;;0.85;0.30;;;;;;;14.20;76.80;100230.13;5025896;28;20045;-80
2023/05/11 06:31:58;;;;;;;;;;;;;;;14.09;77.16;100229.84;5021385;28;20041;-80
2023/05/11 06:34:52;;;;;;;0.63;0.40;;;;;;;13.71;79.75;100233.09;5021008;28;19913;-80
2023/05/11 06:37:48;;;;;;;1.58;0.57;;;;;;;13.40;81.00;100230.25;5029438;28;20421;-81
2023/05/11 06:40:43;;;;;;;2.08;0.73;;;;;;;13.25;81.28;100230.97;5009999;28;20048;-80
2023/05/11 06:43:35;;;;;;;0.77;0.50;;;;;;;13.17;81.07;100224.50;5011542;28;20053;-80
2023/05/11 06:46:28;;;;;;;1.27;0.63;;;;;;;13.11;80.32;100230.50;5022495;28;20045;-80
2023/05/11 06:49:22;;;;;;;6.53;0.60;;;;;;;13.06;81.11;100219.81;5026539;28;20033;-80
2023/05/11 06:52:12;;;;;;;2.50;0.65;;;;;;;12.93;81.46;100227.25;5021211;28;20053;-80
2023/05/11 06:55:06;;;;;;;0.45;0.40;;;;;;;12.81;81.38;100228.03;4995405;28;20417;-81
2023/05/11 06:57:58;;;;;;;0.43;0.30;;;;;;;12.76;82.52;100224.72;5018811;28;20528;-80
2023/05/11 07:00:53;;;;;;;3.40;0.30;;;;;;;12.92;82.97;100227.56;5013191;28;20041;-81
2023/05/11 07:03:47;;;;;;;1.90;0.47;;;;;;;13.05;82.14;100223.72;5018643;28;20048;-81
2023/05/11 07:06:42;;;;;;;1.27;0.65;;;;;;;13.21;81.20;100230.06;5017229;28;20520;-81
2023/05/11 07:09:34;;;;;;;0.40;0.20;;;;;;;13.22;82.08;100228.91;5017308;28;20045;-82
2023/05/11 07:12:29;;;;;;;0.80;0.30;;;;;;;12.93;83.28;100229.97;5017230;28;20045;-80
2023/05/11 07:15:21;;;;;;;1.65;0.57;;;;;;;13.11;83.70;100234.06;5016914;28;20049;-79
2023/05/11 07:18:15;;;;;;;0.77;0.50;;;;;;;13.02;84.25;100241.56;5021971;28;20420;-79
2023/05/11 07:21:10;;;;;;;0.40;0.30;;;;;;;13.18;85.29;100241.69;5011769;28;20033;-80
2023/05/11 07:24:02;;;;;;;2.03;0.60;;;;;;;13.31;84.63;100243.22;5020228;28;20049;-81
2023/05/11 07:26:56;;;;;;;0.57;0.40;;;;;;;13.43;82.92;100247.88;5020669;28;20502;-80
2023/05/11 07:29:51;;;;;;;8.32;0.80;;;;;;;13.27;83.54;100250.53;5003680;28;20061;-80
2023/05/11 07:32:46;;;;;;;5.28;0.68;;;;;;;13.40;84.59;100249.38;5016959;28;20049;-80
2023/05/11 07:35:40;;;;;;;0.73;0.35;;;;;;;13.37;82.98;100241.06;5031669;28;20045;-80
2023/05/11 07:38:35;;;;;;;1.50;0.45;;;;;;;13.52;83.24;100235.66;5010799;28;20053;-81
2023/05/11 07:41:29;;;;;;;7.83;3.07;;;;;;;13.54;81.66;100241.59;5004032;28;20110;-81
2023/05/11 07:44:24;;;;;;;4.90;0.50;;;;;;;13.70;80.48;100236.19;5013789;28;20834;-82
2023/05/11 07:47:19;;;;;;;7.72;0.40;;;;;;;13.82;78.51;100230.66;5009210;28;20277;-82
2023/05/11 07:50:13;;;;;;;2.15;0.32;;;;;;;13.76;78.21;100242.22;5009006;28;20045;-82
2023/05/11 07:53:08;;;;;;;3.28;0.30;;;;;;;13.76;76.82;100248.47;5013919;28;20053;-81
2023/05/11 07:56:02;;;;;;;2.03;0.23;;;;;;;14.12;78.01;100245.53;5009812;28;20049;-80
2023/05/11 07:58:55;;;;;;;2.45;0.40;;;;;;;14.39;75.20;100254.88;5023179;28;20057;-81
2023/05/11 08:01:47;;;;;;;3.45;0.50;;;;;;;14.61;74.01;100253.47;5021274;28;20045;-81
2023/05/11 08:04:41;;;;;;;0.28;0.22;;;;;;;14.69;75.25;100265.38;5025239;28;20068;-81
2023/05/11 08:07:36;;;;;;;2.70;0.32;;;;;;;14.51;74.38;100263.03;5020660;28;20052;-82
2023/05/11 08:10:31;;;;;;;1.70;0.45;;;;;;;14.65;75.70;100259.84;5027449;28;20041;-82
2023/05/11 08:13:23;;;;;;;0.45;0.35;;;;;;;14.51;74.92;100262.22;5017774;28;20523;-83
2023/05/11 08:16:17;;;;;;;6.88;1.13;;;;;;;15.28;74.15;100265.22;5029698;28;20052;-81
2023/05/11 08:19:12;;;;;;;1.33;0.60;;;;;;;16.17;70.79;100267.88;5031117;28;20045;-81
2023/05/11 08:22:06;;;;;;;0.50;0.28;;;;;;;16.71;68.29;100270.41;5031523;28;20037;-81
2023/05/11 08:25:01;;;;;;;2.83;0.30;;;;;;;17.07;66.61;100272.56;5023728;28;20052;-81
2023/05/11 08:27:51;;;;;;;;;;;;;;;16.88;65.13;100275.41;5003956;28;20044;-82
2023/05/11 08:30:46;;;;;;;3.45;0.75;;;;;;;16.99;65.78;100279.13;4998026;28;19914;-82
2023/05/11 08:33:38;;;;;;;0.82;0.40;;;;;;;17.35;65.14;100277.69;5001124;28;20413;-82
2023/05/11 08:36:33;;;;;;;1.40;0.45;;;;;;;17.27;66.01;100280.72;5027429;28;20045;-81
2023/05/11 08:39:27;;;;;;;0.80;0.30;;;;;;;17.45;64.28;100273.50;5023056;28;20057;-82
2023/05/11 08:42:24;;;;;;;0.82;0.30;;;;;;;17.23;64.41;100266.13;5018328;28;20045;-81
2023/05/11 08:45:20;;;;;;;0.60;0.45;;;;;;;16.82;67.11;100270.59;5031685;28;20045;-83
2023/05/11 08:48:11;;;;;;;;;;;;;;;14.47;73.39;100262.13;5019528;28;20049;-86
2023/05/11 08:51:03;;;;;;;2.55;0.35;;;;;;;14.01;77.43;100268.28;5022821;28;20284;-81
2023/05/11 08:53:58;;;;;;;0.28;0.20;;;;;;;13.74;78.10;100263.59;5033502;28;20048;-81
2023/05/11 08:56:54;;;;;;;0.15;0.15;;;;;;;13.73;78.84;100270.22;5021546;28;20503;-80
2023/05/11 08:59:49;;;;;;;0.43;0.30;;;;;;;13.30;81.66;100271.72;5026195;28;20053;-81
2023/05/11 09:02:41;;;;;;;1.23;0.30;;;;;;;13.27;81.69;100277.84;5025752;28;20045;-81
2023/05/11 09:05:36;;;;;;;1.02;0.90;;;;;;;13.17;84.01;100267.38;5038723;28;20076;-81
2023/05/11 09:08:32;;;;;;;1.63;0.88;;;;;;;13.56;82.37;100277.53;5035213;28;20516;-81
2023/05/11 09:11:27;;;;;;;2.72;0.82;;;;;;;14.01;82.12;100279.22;5019650;28;20079;-81
2023/05/11 09:14:22;;;;;;;1.45;0.20;;;;;;;14.20;82.66;100275.81;5022243;28;20515;-82
2023/05/11 09:17:14;;;;;;;0.10;0.10;;;;;;;13.53;81.48;100278.25;5028473;28;20046;-82
2023/05/11 09:20:11;;;;;;;0.43;0.40;;;;;;;14.32;79.28;100273.03;5029000;28;20052;-82
2023/05/11 09:23:06;;;;;;;0.60;0.30;;;;;;;13.74;81.03;100263.59;5023486;28;20045;-80
2023/05/11 09:26:01;;;;;;;0.20;0.20;;;;;;;14.04;79.28;100273.84;5020937;28;20037;-81
2023/05/11 09:29:02;;;;;;;0.17;0.10;;;;;;;14.58;78.35;100275.28;5018174;28;20056;-81
2023/05/11 09:31:57;;;;;;;5.53;0.50;;;;;;;14.73;77.92;100269.03;5025481;28;20049;-81
2023/05/11 09:34:49;;;;;;;0.77;0.43;;;;;;;14.93;76.17;100262.47;5019579;28;20044;-81
2023/05/11 09:37:55;;;;;;;0.65;0.38;;;;;;;14.09;78.98;100265.38;5011169;28;20045;-80
2023/05/11 09:40:59;;;;;;;0.95;0.17;;;;;;;14.07;79.24;100264.94;5037226;28;20045;-80
2023/05/11 09:43:54;;;;;;;0.53;0.30;;;;;;;14.77;78.61;100264.44;5023418;28;20041;-80
2023/05/11 09:46:47;;;;;;;0.68;0.60;;;;;;;14.48;78.65;100260.97;5027576;28;20291;-81
2023/05/11 09:49:46;;;;;;;3.70;0.40;;;;;;;14.99;76.43;100267.31;5008171;28;20053;-80
2023/05/11 09:52:50;;;;;;;1.20;0.40;;;;;;;15.21;71.30;100270.53;5025541;28;20053;-81
2023/05/11 09:55:54;;;;;;;1.02;0.47;;;;;;;14.63;74.82;100269.56;5024672;28;20061;-81
2023/05/11 09:58:56;;;;;;;2.75;0.50;;;;;;;14.79;76.42;100264.84;5021052;28;20053;-82
2023/05/11 10:01:47;;;;;;;7.35;0.52;;;;;;;15.11;73.70;100265.63;5029556;28;20049;-81
2023/05/11 10:04:42;;;;;;;4.03;0.50;;;;;;;14.25;78.70;100264.63;5026736;28;20056;-81
2023/05/11 10:07:36;;;;;;;10.07;9.35;;;;;;;14.02;85.11;100270.66;5024841;28;20044;-80
2023/05/11 10:10:31;;;;;;;81.25;28.38;;;;;;;14.10;87.42;100266.19;5022713;28;20071;-80
2023/05/11 10:13:26;;;;;;;1.25;0.50;;;;;;;14.38;96.53;100269.69;5002208;28;20042;-79
2023/05/11 10:16:19;;;;;;;9.77;0.82;;;;;;;14.84;95.83;100275.53;5012711;28;20053;-80
2023/05/11 10:19:14;;;;;;;7.25;0.75;;;;;;;15.34;93.02;100269.25;5019190;28;20041;-80
2023/05/11 10:22:09;;;;;;;1.00;0.55;;;;;;;15.69;89.57;100266.53;5009777;28;20517;-80
2023/05/11 10:25:04;;;;;;;0.60;0.30;;;;;;;15.77;84.55;100266.31;5002787;28;20527;-80
2023/05/11 10:27:58;;;;;;;6.05;5.68;;;;;;;16.05;80.66;100268.03;5013240;28;20056;-80
2023/05/11 10:30:53;;;;;;;8.27;7.82;;;;;;;16.58;78.17;100269.00;5020627;28;20413;-80
2023/05/11 10:33:48;;;;;;;0.93;0.30;;;;;;;16.91;74.99;100271.16;5009478;28;20057;-80
2023/05/11 10:36:42;;;;;;;1.65;0.32;;;;;;;17.09;72.52;100264.75;5009734;28;20429;-80
2023/05/11 10:39:36;;;;;;;1.30;0.40;;;;;;;16.84;70.01;100266.34;5022326;28;20053;-80
2023/05/11 10:42:37;;;;;;;2.65;0.20;;;;;;;17.00;69.05;100255.19;5018064;28;20052;-80
2023/05/11 10:46:04;;;;;;;4.38;0.30;;;;;;;17.33;68.50;100257.22;5018933;28;20449;-80
2023/05/11 10:49:20;;;;;;;1.92;0.40;;;;;;;17.59;68.82;100261.91;5020737;28;20053;-81
2023/05/11 10:52:56;;;;;;;3.30;0.30;;;;;;;17.74;66.55;100250.75;5019334;28;20049;-80
2023/05/11 10:56:04;;;;;;;5.10;0.20;;;;;;;17.95;66.48;100252.94;5021084;28;20396;-80
2023/05/11 10:59:21;;;;;;;1.30;0.40;;;;;;;17.35;68.54;100254.91;5017885;28;20053;-80
2023/05/11 11:02:15;;;;;;;0.80;0.47;;;;;;;17.90;66.59;100250.53;5017710;28;20041;-80
2023/05/11 11:05:12;;;;;;;0.57;0.25;;;;;;;17.60;66.11;100247.03;4997745;28;20061;-80
2023/05/11 11:08:07;;;;;;;0.52;0.43;;;;;;;17.66;66.47;100245.53;4987963;28;20057;-80
2023/05/11 11:11:02;;;;;;;2.08;0.28;;;;;;;17.92;66.11;100257.25;5015204;28;20064;-80
2023/05/11 11:14:04;;;;;;;3.78;1.25;;;;;;;17.94;65.07;100248.59;5010230;28;20057;-80
2023/05/11 11:17:20;;;;;;;0.82;0.50;;;;;;;18.28;63.51;100246.63;4998547;28;20049;-80
2023/05/11 11:20:29;;;;;;;2.72;0.80;;;;;;;18.20;62.85;100247.72;5004479;28;20040;-80
2023/05/11 11:23:38;;;;;;;1.35;0.80;;;;;;;17.92;63.28;100250.97;5003338;28;20067;-81
2023/05/11 11:26:51;;;;;;;4.18;1.42;;;;;;;18.14;63.06;100251.97;5017587;28;20049;-80
2023/05/11 11:30:09;;;;;;;2.10;0.68;;;;;;;18.11;63.07;100241.72;5032329;28;20049;-80
2023/05/11 11:33:11;;;;;;;1.58;0.70;;;;;;;18.42;61.89;100252.25;5007943;28;20049;-81
2023/05/11 11:36:06;;;;;;;3.20;0.47;;;;;;;18.50;60.88;100244.84;4999949;28;20045;-80
2023/05/11 11:39:04;;;;;;;1.70;0.60;;;;;;;18.49;61.15;100244.06;4999706;28;20057;-80
2023/05/11 11:42:40;;;;;;;0.73;0.32;;;;;;;18.62;60.05;100247.34;5017849;28;20048;-80
2023/05/11 11:45:37;;;;;;;0.50;0.43;;;;;;;18.63;59.35;100244.22;5007192;28;20042;-81
2023/05/11 11:48:39;;;;;;;4.95;0.40;;;;;;;18.65;59.71;100252.88;5017552;28;20049;-81
2023/05/11 11:51:36;;;;;;;0.57;0.40;;;;;;;18.49;59.92;100248.78;5025834;28;20041;-80
2023/05/11 11:55:01;;;;;;;1.55;0.30;;;;;;;18.64;59.74;100254.06;5025111;28;20539;-80
2023/05/11 11:57:55;;;;;;;0.95;0.40;;;;;;;18.63;59.68;100251.69;4999594;28;20053;-81
2023/05/11 12:00:51;;;;;;;0.67;0.50;;;;;;;18.26;59.91;100251.72;5019507;28;20049;-80
2023/05/11 12:03:46;;;;;;;0.40;0.20;;;;;;;18.30;60.69;100249.78;5034024;28;20052;-80
2023/05/11 12:06:45;;;;;;;1.08;0.50;;;;;;;18.36;60.93;100248.28;5016503;28;20114;-80
2023/05/11 12:09:36;;;;;;;2.10;0.25;;;;;;;17.74;62.97;100245.25;5032093;28;20049;-80
2023/05/11 12:12:31;;;;;;;0.77;0.30;;;;;;;18.11;62.61;100248.03;5035463;28;20069;-81
2023/05/11 12:15:27;;;;;;;;;;;;;;;18.18;61.87;100250.06;5028621;28;20507;-81
2023/05/11 12:18:28;;;;;;;1.73;0.70;;;;;;;18.15;61.16;100245.31;5021080;28;19921;-80
2023/05/11 12:21:27;;;;;;;1.08;0.30;;;;;;;17.34;62.64;100247.84;5031969;28;20041;-80
2023/05/11 12:24:21;;;;;;;0.30;0.20;;;;;;;16.33;67.22;100251.31;5009546;28;20059;-80
2023/05/11 12:27:17;;;;;;;0.50;0.35;;;;;;;16.00;69.08;100244.41;5028363;28;20056;-81
2023/05/11 12:30:19;;;;;;;2.40;0.80;;;;;;;15.69;70.54;100239.13;5016424;28;20072;-79
2023/05/11 12:33:18;;;;;;;0.85;0.30;;;;;;;15.55;70.65;100236.06;5030242;28;20049;-80
2023/05/11 12:36:15;;;;;;;6.43;0.73;;;;;;;15.49;72.23;100232.03;5037008;28;20041;-79
2023/05/11 12:39:17;;;;;;;1.67;0.52;;;;;;;15.48;72.80;100230.44;5016891;28;20053;-80
2023/05/11 12:42:19;;;;;;;4.53;0.70;;;;;;;15.22;74.31;100231.84;5009128;28;20048;-80
2023/05/11 12:45:14;;;;;;;0.85;0.57;;;;;;;15.05;74.83;100224.00;5018938;28;20045;-79
2023/05/11 12:48:10;;;;;;;0.95;0.40;;;;;;;15.06;72.84;100217.41;5017962;28;20045;-79
2023/05/11 12:51:04;;;;;;;9.73;1.45;;;;;;;15.07;73.49;100212.72;5002798;28;20045;-80
2023/05/11 12:53:56;;;;;;;0.45;0.40;;;;;;;15.02;74.20;100213.00;4998332;28;20053;-80
2023/05/11 12:56:51;;;;;;;1.65;0.60;;;;;;;15.05;74.27;100213.06;5021636;28;20045;-80
2023/05/11 12:59:46;;;;;;;0.38;0.32;;;;;;;15.01;73.80;100211.41;5016480;28;20044;-79
2023/05/11 13:02:53;;;;;;;2.38;0.30;;;;;;;15.11;72.63;100217.13;5001981;28;20041;-79
2023/05/11 13:05:48;;;;;;;0.70;0.32;;;;;;;14.98;72.06;100210.19;5020927;28;20524;-79
2023/05/11 13:08:47;;;;;;;1.65;0.20;;;;;;;14.90;73.17;100206.47;5019086;28;20041;-78
2023/05/11 13:11:42;;;;;;;0.82;0.35;;;;;;;14.92;74.44;100208.88;5018977;28;20045;-78
2023/05/11 13:14:36;;;;;;;0.20;0.20;;;;;;;14.98;73.73;100199.22;5019843;28;20052;-80
2023/05/11 13:17:40;;;;;;;0.20;0.20;;;;;;;14.93;71.82;100200.28;5023288;28;20049;-80
2023/05/11 13:20:34;;;;;;;1.02;0.20;;;;;;;14.98;70.88;100204.72;5014764;28;20046;-78
2023/05/11 13:23:26;;;;;;;0.35;0.30;;;;;;;15.09;71.99;100202.19;4999124;28;20405;-80
2023/05/11 13:26:25;;;;;;;0.68;0.22;;;;;;;15.12;71.94;100199.53;5019881;28;20416;-80
2023/05/11 13:29:17;;;;;;;0.30;0.28;;;;;;;15.17;72.04;100202.00;5024808;28;20053;-80
2023/05/11 13:32:11;;;;;;;1.00;0.20;;;;;;;15.13;74.04;100208.56;5023645;28;20512;-79
2023/05/11 13:35:07;;;;;;;0.73;0.20;;;;;;;15.15;72.78;100198.81;5031169;28;20049;-80
2023/05/11 13:38:02;;;;;;;0.38;0.38;;;;;;;15.14;72.05;100199.97;5020951;28;20280;-80
2023/05/11 13:40:57;;;;;;;2.45;0.43;;;;;;;15.05;71.38;100202.09;5021089;28;20414;-80
2023/05/11 13:43:49;;;;;;;0.73;0.50;;;;;;;14.99;70.49;100206.28;5025958;28;20425;-80